Time;durP1;ratioP1;P1;durP2;ratioP2;P2;SDS_P1;SDS_P2;PMS_P1;PMS_P2;Temp;Humidity;BMP_temperature;BMP_pressure;BME280_temperature;BME280_humidity;BME280_pressure;Samples;Min_cycle;Max_cycle;Signal;HPM_P1;HPM_P2
2023/06/20 00:01:30;;;;;;;20.05;14.20;;;;;;;21.35;89.00;101154.06;5035069;28;20037;-71
2023/06/20 00:03:56;;;;;;;19.48;14.07;;;;;;;21.24;90.28;101152.44;5033267;28;20037;-72
2023/06/20 00:06:22;;;;;;;19.23;14.15;;;;;;;21.19;89.79;101150.19;5037578;28;20053;-72
2023/06/20 00:08:48;;;;;;;24.88;14.75;;;;;;;21.16;88.84;101152.38;5040343;28;20546;-72
2023/06/20 00:11:13;;;;;;;20.10;14.18;;;;;;;21.12;88.27;101146.41;5031199;28;20037;-71
2023/06/20 00:13:42;;;;;;;20.25;14.02;;;;;;;20.96;90.67;101157.13;5035548;28;20033;-72
2023/06/20 00:16:11;;;;;;;17.90;13.70;;;;;;;21.08;90.25;101146.88;5047669;28;20910;-72
2023/06/20 00:18:37;;;;;;;18.20;13.65;;;;;;;21.14;89.05;101147.13;5036601;28;20051;-72
2023/06/20 00:21:02;;;;;;;18.95;13.98;;;;;;;21.05;88.92;101144.50;5037720;28;20487;-72
2023/06/20 00:23:29;;;;;;;17.60;13.63;;;;;;;21.09;88.72;101144.03;5031286;28;20419;-72
2023/06/20 00:25:56;;;;;;;21.67;14.10;;;;;;;21.02;89.51;101139.38;5032600;28;20068;-72
2023/06/20 00:28:21;;;;;;;19.10;14.40;;;;;;;21.03;88.18;101147.34;5038087;28;20037;-73
2023/06/20 00:30:47;;;;;;;20.45;14.00;;;;;;;20.90;90.31;101134.22;5032466;28;20525;-72
2023/06/20 00:33:12;;;;;;;20.95;14.98;;;;;;;20.92;89.87;101136.75;5036540;28;20410;-72
2023/06/20 00:35:38;;;;;;;19.92;13.07;;;;;;;21.05;89.19;101131.78;5030783;28;20025;-71
2023/06/20 00:38:04;;;;;;;21.55;13.60;;;;;;;20.88;90.04;101138.97;5032222;28;20033;-72
2023/06/20 00:40:32;;;;;;;21.08;13.95;;;;;;;20.94;89.81;101126.63;5032261;28;20033;-72
2023/06/20 00:42:58;;;;;;;19.92;13.52;;;;;;;20.85;88.47;101119.44;5069283;28;20037;-72
2023/06/20 00:45:28;;;;;;;19.75;12.80;;;;;;;20.93;87.74;101123.06;5029912;28;20029;-72
2023/06/20 00:47:55;;;;;;;17.25;13.18;;;;;;;20.83;88.15;101127.69;5034695;28;20041;-72
2023/06/20 00:50:26;;;;;;;19.60;12.70;;;;;;;20.85;87.48;101123.00;5032084;28;20648;-73
2023/06/20 00:52:56;;;;;;;18.15;12.05;;;;;;;20.72;86.15;101121.69;5034501;28;20314;-72
2023/06/20 00:55:22;;;;;;;20.13;11.75;;;;;;;20.86;86.20;101111.13;5034316;28;20044;-72
2023/06/20 00:57:48;;;;;;;16.38;12.25;;;;;;;20.65;86.12;101121.47;5031152;28;20103;-71
2023/06/20 01:00:14;;;;;;;17.00;12.25;;;;;;;20.77;85.32;101116.66;5029112;28;20048;-72
2023/06/20 01:02:46;;;;;;;20.27;12.18;;;;;;;20.81;84.57;101116.19;5029645;28;20045;-71
2023/06/20 01:05:14;;;;;;;15.30;10.88;;;;;;;20.84;83.76;101105.03;5032428;28;20037;-72
2023/06/20 01:07:57;;;;;;;15.18;10.75;;;;;;;20.81;84.33;101108.03;5034276;28;20033;-72
2023/06/20 01:10:43;;;;;;;14.48;10.85;;;;;;;20.85;82.64;101105.88;5033979;28;20041;-72
2023/06/20 01:13:23;;;;;;;15.55;10.93;;;;;;;20.86;83.69;101107.56;5035059;28;20087;-72
2023/06/20 01:16:16;;;;;;;14.13;11.13;;;;;;;20.82;83.30;101098.91;5035049;28;20033;-72
2023/06/20 01:19:16;;;;;;;16.60;10.70;;;;;;;20.90;82.17;101100.84;5033708;28;20029;-73
2023/06/20 01:21:50;;;;;;;14.98;10.55;;;;;;;20.91;83.24;101108.81;5044184;28;20151;-71
2023/06/20 01:24:41;;;;;;;16.77;10.68;;;;;;;21.05;81.26;101101.13;5031537;28;20033;-72
2023/06/20 01:27:15;;;;;;;15.60;11.05;;;;;;;20.84;82.17;101099.59;5036758;28;20029;-72
2023/06/20 01:29:47;;;;;;;17.88;10.93;;;;;;;21.01;81.02;101100.56;5033837;28;20177;-72
2023/06/20 01:32:17;;;;;;;18.17;11.20;;;;;;;20.92;82.58;101096.94;5029431;28;20106;-72
2023/06/20 01:34:49;;;;;;;14.43;10.65;;;;;;;20.81;81.66;101094.50;5035370;28;20518;-72
2023/06/20 01:37:18;;;;;;;17.05;12.18;;;;;;;21.01;82.24;101086.16;5034527;28;20033;-71
2023/06/20 01:39:46;;;;;;;16.58;11.57;;;;;;;21.00;81.81;101090.75;5030711;28;20034;-72
2023/06/20 01:42:15;;;;;;;14.57;11.65;;;;;;;20.87;81.88;101093.00;5035283;28;20029;-72
2023/06/20 01:44:43;;;;;;;15.18;11.50;;;;;;;20.95;82.32;101088.50;5034516;28;20141;-71
2023/06/20 01:47:11;;;;;;;16.90;11.30;;;;;;;20.92;81.95;101086.09;5034633;28;20033;-72
2023/06/20 01:49:40;;;;;;;17.52;11.55;;;;;;;20.95;81.83;101085.78;5029941;28;20895;-71
2023/06/20 01:52:06;;;;;;;19.95;12.10;;;;;;;21.04;81.40;101092.13;5029927;28;20076;-72
2023/06/20 01:54:34;;;;;;;18.88;11.52;;;;;;;21.01;81.76;101091.59;5029770;28;20756;-72
2023/06/20 01:57:01;;;;;;;20.52;11.93;;;;;;;21.05;80.89;101091.13;5062831;28;20540;-72
2023/06/20 01:59:28;;;;;;;16.25;11.38;;;;;;;21.05;81.70;101084.84;5033429;28;20038;-72
2023/06/20 02:01:56;;;;;;;15.43;11.38;;;;;;;21.17;80.89;101088.97;5037752;28;20029;-71
2023/06/20 02:04:24;;;;;;;18.38;11.90;;;;;;;21.06;81.23;101087.38;5028651;28;20038;-73
2023/06/20 02:06:50;;;;;;;19.55;12.57;;;;;;;21.00;81.79;101082.59;5030654;28;20039;-72
2023/06/20 02:09:17;;;;;;;14.32;10.48;;;;;;;21.03;82.58;101086.84;5034432;28;20060;-73
2023/06/20 02:11:47;;;;;;;17.02;11.93;;;;;;;20.97;82.90;101082.91;5034198;28;20038;-72
2023/06/20 02:14:13;;;;;;;14.60;11.48;;;;;;;20.95;84.04;101090.38;5037183;28;20037;-72
2023/06/20 02:16:40;;;;;;;17.15;11.82;;;;;;;20.95;83.68;101082.22;5035181;28;20138;-72
2023/06/20 02:19:07;;;;;;;14.70;12.05;;;;;;;20.82;84.05;101082.63;5038115;28;20191;-72
2023/06/20 02:21:37;;;;;;;19.10;12.27;;;;;;;20.79;85.35;101079.41;5035699;28;20187;-72
2023/06/20 02:24:05;;;;;;;20.50;13.15;;;;;;;20.77;85.12;101074.13;5037911;28;20041;-71
2023/06/20 02:26:34;;;;;;;19.77;12.35;;;;;;;20.77;84.75;101068.69;5031756;28;20060;-72
2023/06/20 02:29:05;;;;;;;24.95;14.48;;;;;;;20.71;85.63;101065.78;5036573;28;20411;-72
2023/06/20 02:31:43;;;;;;;26.63;13.30;;;;;;;20.78;85.20;101062.25;5029661;28;20041;-72
2023/06/20 02:34:13;;;;;;;19.58;13.88;;;;;;;20.88;86.31;101064.88;5032750;28;20084;-71
2023/06/20 02:36:43;;;;;;;18.17;13.63;;;;;;;20.78;85.72;101062.25;5031842;28;20245;-72
2023/06/20 02:39:08;;;;;;;18.70;13.07;;;;;;;20.84;86.02;101063.53;5047140;28;20532;-71
2023/06/20 02:41:35;;;;;;;21.48;12.95;;;;;;;20.89;85.54;101063.91;5033872;28;20067;-73
2023/06/20 02:44:00;;;;;;;19.17;14.05;;;;;;;20.88;85.45;101056.75;5042427;28;20076;-72
2023/06/20 02:46:26;;;;;;;17.27;13.80;;;;;;;20.81;86.39;101059.25;5027028;28;20039;-72
2023/06/20 02:49:00;;;;;;;18.08;14.02;;;;;;;20.79;86.46;101057.72;5040464;28;20030;-73
2023/06/20 02:51:37;;;;;;;18.70;13.50;;;;;;;20.83;86.37;101054.50;5032646;28;20068;-72
2023/06/20 02:54:29;;;;;;;21.55;14.60;;;;;;;20.85;86.18;101052.50;5035733;28;20605;-71
2023/06/20 02:56:59;;;;;;;19.43;13.80;;;;;;;20.82;86.89;101050.09;5030896;28;20044;-72
2023/06/20 02:59:26;;;;;;;17.65;13.95;;;;;;;20.82;86.97;101049.25;5039759;28;20649;-72
2023/06/20 03:01:56;;;;;;;23.30;14.48;;;;;;;20.97;85.68;101041.41;5038147;28;20037;-72
2023/06/20 03:04:26;;;;;;;18.17;14.63;;;;;;;20.83;87.71;101054.50;5035230;28;20149;-71
2023/06/20 03:06:52;;;;;;;21.08;15.02;;;;;;;20.74;90.03;101052.78;5041120;28;20043;-72
2023/06/20 03:09:20;;;;;;;17.42;14.13;;;;;;;20.65;91.21;101056.44;5035531;28;20029;-72
2023/06/20 03:11:46;;;;;;;18.98;14.60;;;;;;;20.56;91.99;101057.38;5034479;28;20045;-72
2023/06/20 03:14:13;;;;;;;20.63;13.82;;;;;;;20.59;90.97;101059.78;5040734;28;20738;-71
2023/06/20 03:16:42;;;;;;;18.25;13.75;;;;;;;20.74;90.18;101062.78;5046250;28;20069;-71
2023/06/20 03:19:10;;;;;;;18.85;14.38;;;;;;;20.72;91.21;101056.63;5040564;28;20029;-72
2023/06/20 03:21:38;;;;;;;20.38;14.68;;;;;;;20.71;91.93;101052.22;5037367;28;20235;-72
2023/06/20 03:24:04;;;;;;;19.20;15.27;;;;;;;20.68;91.96;101056.97;5032307;28;20060;-71
2023/06/20 03:26:31;;;;;;;17.95;13.77;;;;;;;20.73;91.61;101055.63;5031203;28;20041;-71
2023/06/20 03:28:57;;;;;;;19.38;15.00;;;;;;;20.60;93.63;101062.31;5032221;28;20021;-72
2023/06/20 03:31:22;;;;;;;22.67;16.02;;;;;;;20.76;92.75;101052.59;5041575;28;20040;-72
2023/06/20 03:33:48;;;;;;;19.35;14.77;;;;;;;20.71;93.52;101049.53;5035060;28;20088;-72
2023/06/20 03:36:14;;;;;;;23.02;16.02;;;;;;;20.69;94.36;101047.81;5035769;28;20686;-72
2023/06/20 03:38:42;;;;;;;20.08;16.13;;;;;;;20.64;95.17;101049.31;5031604;28;20034;-71
2023/06/20 03:41:08;;;;;;;20.10;15.02;;;;;;;20.59;95.15;101051.66;5038313;28;20072;-71
2023/06/20 03:43:33;;;;;;;20.67;15.00;;;;;;;20.65;95.30;101045.59;5031129;28;20071;-72
2023/06/20 03:45:59;;;;;;;23.95;15.82;;;;;;;20.68;95.49;101047.97;5037053;28;20040;-72
2023/06/20 03:48:25;;;;;;;26.35;15.27;;;;;;;20.54;95.98;101048.56;5039367;28;20065;-72
2023/06/20 03:50:51;;;;;;;19.08;15.45;;;;;;;20.64;96.30;101046.59;5036238;28;20040;-72
2023/06/20 03:53:17;;;;;;;23.17;16.42;;;;;;;20.71;95.78;101044.94;5036712;28;20076;-72
2023/06/20 03:55:43;;;;;;;20.50;15.60;;;;;;;20.71;95.18;101044.09;5033927;28;20044;-72
2023/06/20 03:58:09;;;;;;;22.05;15.68;;;;;;;20.71;94.52;101035.97;5031875;28;20037;-72
2023/06/20 04:00:34;;;;;;;20.65;15.45;;;;;;;20.75;94.21;101034.66;5039098;28;20290;-72
2023/06/20 04:03:01;;;;;;;26.70;15.55;;;;;;;20.87;92.89;101036.06;5045015;28;20038;-71
2023/06/20 04:05:27;;;;;;;21.38;15.85;;;;;;;21.04;92.13;101031.63;5039537;28;20082;-71
2023/06/20 04:07:53;;;;;;;25.83;16.63;;;;;;;21.13;91.08;101030.63;5033908;28;20106;-72
2023/06/20 04:10:19;;;;;;;21.38;15.32;;;;;;;21.27;88.54;101031.91;5038902;28;20091;-72
2023/06/20 04:12:45;;;;;;;24.90;17.10;;;;;;;21.16;90.65;101038.47;5032146;28;20041;-72
2023/06/20 04:15:11;;;;;;;21.92;16.67;;;;;;;21.07;91.55;101028.56;5036104;28;20030;-71
2023/06/20 04:17:42;;;;;;;21.58;16.38;;;;;;;21.26;90.96;101033.75;5033250;28;20391;-72
2023/06/20 04:20:14;;;;;;;22.48;15.90;;;;;;;21.36;89.38;101034.53;5032368;28;20037;-71
2023/06/20 04:22:44;;;;;;;20.40;17.27;;;;;;;21.41;89.00;101037.59;5032478;28;20049;-71
2023/06/20 04:25:16;;;;;;;20.15;16.05;;;;;;;21.32;90.11;101032.28;5037746;28;20037;-71
2023/06/20 04:27:44;;;;;;;25.55;17.88;;;;;;;21.55;89.38;101029.88;5033943;28;20132;-72
2023/06/20 04:30:10;;;;;;;20.77;16.73;;;;;;;21.65;89.48;101034.13;5031656;28;20025;-71
2023/06/20 04:32:37;;;;;;;25.20;17.30;;;;;;;21.81;87.65;101030.63;5032357;28;20042;-72
2023/06/20 04:35:05;;;;;;;23.95;17.75;;;;;;;21.85;85.93;101025.72;5030051;28;20053;-72
2023/06/20 04:37:31;;;;;;;25.60;17.33;;;;;;;21.71;87.85;101030.75;5044177;28;20038;-70
2023/06/20 04:39:59;;;;;;;24.38;16.42;;;;;;;21.57;88.23;101025.94;5037805;28;20769;-73
2023/06/20 04:42:25;;;;;;;21.95;17.58;;;;;;;21.53;88.77;101024.56;5045109;28;20064;-70
2023/06/20 04:44:50;;;;;;;23.75;16.95;;;;;;;21.70;87.65;101042.63;5045502;28;20437;-70
2023/06/20 04:47:16;;;;;;;21.55;17.08;;;;;;;21.66;88.65;101032.25;5042164;28;20052;-70
2023/06/20 04:49:43;;;;;;;21.50;16.23;;;;;;;21.45;89.13;101030.84;5036640;28;20036;-72
2023/06/20 04:52:08;;;;;;;23.48;15.63;;;;;;;21.51;89.42;101031.19;5035455;28;20184;-70
2023/06/20 04:54:34;;;;;;;24.83;16.92;;;;;;;21.39;91.83;101036.91;5033694;28;20907;-72
2023/06/20 04:57:02;;;;;;;23.17;16.20;;;;;;;21.47;90.41;101033.38;5048372;28;20151;-70
2023/06/20 04:59:28;;;;;;;20.90;15.40;;;;;;;21.47;90.17;101038.81;5035370;28;20168;-72
2023/06/20 05:01:55;;;;;;;29.52;16.58;;;;;;;21.44;90.64;101037.28;5039637;28;20037;-70
2023/06/20 05:04:21;;;;;;;21.50;16.50;;;;;;;21.44;90.34;101037.28;5042452;28;20040;-70
2023/06/20 05:06:47;;;;;;;19.08;15.35;;;;;;;21.45;90.41;101035.41;5042526;28;20980;-70
2023/06/20 05:09:12;;;;;;;21.10;16.98;;;;;;;21.39;90.98;101036.91;5041755;28;20029;-70
2023/06/20 05:11:38;;;;;;;23.42;16.67;;;;;;;21.32;93.35;101027.72;5042417;28;20511;-72
2023/06/20 05:14:04;;;;;;;21.88;16.42;;;;;;;21.32;92.91;101032.28;5044018;28;20033;-70
2023/06/20 05:16:29;;;;;;;22.02;16.95;;;;;;;21.21;92.69;101030.69;5037644;28;20359;-70
2023/06/20 05:18:55;;;;;;;22.58;17.25;;;;;;;21.33;93.05;101034.84;5036459;28;20029;-70
2023/06/20 05:21:20;;;;;;;19.40;16.10;;;;;;;21.38;92.81;101031.63;5039043;28;21482;-70
2023/06/20 05:23:46;;;;;;;20.65;16.70;;;;;;;21.41;92.47;101026.75;5042357;28;20037;-71
2023/06/20 05:26:12;;;;;;;24.02;18.20;;;;;;;21.52;92.48;101032.88;5041136;28;22772;-70
2023/06/20 05:28:37;;;;;;;25.42;18.48;;;;;;;21.39;92.86;101034.22;5046361;28;20079;-70
2023/06/20 05:31:03;;;;;;;21.02;17.48;;;;;;;21.51;92.93;101033.91;5046065;28;20044;-70
2023/06/20 05:33:29;;;;;;;21.92;17.63;;;;;;;21.67;92.81;101042.09;5043041;28;20048;-70
2023/06/20 05:35:54;;;;;;;27.90;18.10;;;;;;;21.43;92.92;101038.28;5044784;28;20037;-70
2023/06/20 05:38:20;;;;;;;23.27;17.83;;;;;;;21.57;92.38;101035.97;5036447;28;20037;-71
2023/06/20 05:40:46;;;;;;;22.80;17.17;;;;;;;21.76;91.32;101034.84;5045052;28;20041;-70
2023/06/20 05:43:11;;;;;;;19.35;16.70;;;;;;;21.82;92.14;101031.47;5031350;28;20044;-70
2023/06/20 05:45:37;;;;;;;27.05;18.00;;;;;;;22.10;90.28;101032.03;5042458;28;20037;-71
2023/06/20 05:48:03;;;;;;;20.17;17.15;;;;;;;21.89;91.55;101035.22;5044531;28;20037;-71
2023/06/20 05:50:30;;;;;;;21.52;16.15;;;;;;;22.07;91.16;101038.63;5038924;28;20038;-71
2023/06/20 05:52:56;;;;;;;20.00;15.95;;;;;;;22.43;89.59;101038.38;5041856;28;20056;-71
2023/06/20 05:55:21;;;;;;;21.20;17.15;;;;;;;22.76;89.17;101028.34;5034821;28;20041;-70
2023/06/20 05:57:47;;;;;;;22.90;17.75;;;;;;;22.87;87.68;101019.81;5037982;28;20037;-70
2023/06/20 06:00:13;;;;;;;24.35;17.42;;;;;;;23.74;82.63;101030.75;5039317;28;20037;-71
2023/06/20 06:02:45;;;;;;;20.33;17.60;;;;;;;23.95;79.94;101017.38;5039775;28;20064;-71
2023/06/20 06:05:11;;;;;;;23.05;17.80;;;;;;;24.39;75.36;101019.44;5034010;28;20045;-71
2023/06/20 06:07:38;;;;;;;23.88;18.02;;;;;;;24.37;75.64;101009.78;5033458;28;20041;-70
2023/06/20 06:10:08;;;;;;;20.25;18.05;;;;;;;24.53;73.80;101017.81;5034287;28;20125;-70
2023/06/20 06:12:37;;;;;;;19.30;17.27;;;;;;;25.03;73.57;101013.56;5035929;28;20052;-70
2023/06/20 06:15:04;;;;;;;20.55;17.27;;;;;;;25.47;70.59;101015.47;5033886;28;20064;-70
2023/06/20 06:17:30;;;;;;;21.10;17.17;;;;;;;25.50;68.85;101010.47;5042202;28;20041;-70
2023/06/20 06:19:57;;;;;;;25.20;18.38;;;;;;;24.87;72.09;101014.59;5042812;28;20036;-70
2023/06/20 06:22:22;;;;;;;21.70;18.52;;;;;;;25.07;72.99;101006.72;5035487;28;20105;-70
2023/06/20 06:24:48;;;;;;;20.02;17.38;;;;;;;25.06;72.32;100999.53;5035086;28;20042;-70
2023/06/20 06:27:13;;;;;;;18.88;16.83;;;;;;;25.13;73.07;100995.03;5032273;28;20095;-70
2023/06/20 06:29:39;;;;;;;19.83;17.20;;;;;;;25.57;71.18;100989.53;5039886;28;20123;-70
2023/06/20 06:32:06;;;;;;;20.38;18.05;;;;;;;25.20;71.90;100997.84;5044281;28;20135;-70
2023/06/20 06:34:32;;;;;;;20.48;17.10;;;;;;;25.71;69.67;101001.47;5038269;28;20048;-70
2023/06/20 06:36:58;;;;;;;23.23;17.92;;;;;;;25.08;71.42;100993.91;5035822;28;20026;-70
2023/06/20 06:39:25;;;;;;;22.35;18.83;;;;;;;25.26;71.60;101000.69;5031334;28;20041;-70
2023/06/20 06:41:50;;;;;;;23.33;18.30;;;;;;;25.27;74.12;101007.84;5040942;28;20049;-70
2023/06/20 06:44:17;;;;;;;26.27;18.33;;;;;;;25.65;73.20;101009.56;5035703;28;21931;-70
2023/06/20 06:46:43;;;;;;;20.63;17.25;;;;;;;25.81;69.79;101018.44;5039931;28;20052;-70
2023/06/20 06:49:09;;;;;;;19.77;15.55;;;;;;;26.11;70.06;101018.34;5039358;28;20064;-70
2023/06/20 06:51:37;;;;;;;21.60;17.42;;;;;;;26.13;69.83;101031.81;5032623;28;20049;-70
2023/06/20 06:54:02;;;;;;;19.58;15.80;;;;;;;26.13;68.89;101032.66;5064470;28;20136;-70
2023/06/20 06:56:28;;;;;;;22.02;15.45;;;;;;;26.17;68.98;101035.84;5033662;28;20029;-70
2023/06/20 06:58:57;;;;;;;20.98;15.50;;;;;;;25.85;68.33;101037.16;5037750;28;20813;-70
2023/06/20 07:01:23;;;;;;;16.98;15.18;;;;;;;25.45;71.25;101033.91;5033593;28;20040;-70
2023/06/20 07:03:49;;;;;;;18.45;15.82;;;;;;;25.46;72.74;101030.16;5039758;28;20076;-70
2023/06/20 07:06:14;;;;;;;25.35;15.52;;;;;;;25.44;71.84;101026.75;5037465;28;20605;-70
2023/06/20 07:08:40;;;;;;;20.77;15.95;;;;;;;25.58;71.71;101034.09;5032606;28;20045;-70
2023/06/20 07:11:05;;;;;;;25.05;15.45;;;;;;;26.05;70.26;101030.88;5039479;28;20045;-73
2023/06/20 07:13:31;;;;;;;18.15;15.15;;;;;;;26.17;68.56;101033.09;5037917;28;20140;-70
2023/06/20 07:15:57;;;;;;;17.27;14.65;;;;;;;25.99;68.34;101031.66;5034300;28;20029;-70
2023/06/20 07:18:22;;;;;;;16.67;14.88;;;;;;;25.90;70.96;101045.63;5038727;28;20539;-71
2023/06/20 07:20:48;;;;;;;19.67;14.25;;;;;;;26.13;70.39;101043.56;5065191;28;20034;-71
2023/06/20 07:23:13;;;;;;;16.63;14.65;;;;;;;26.03;70.83;101038.44;5037035;28;20049;-71
2023/06/20 07:25:39;;;;;;;19.98;15.35;;;;;;;25.75;71.29;101032.00;5040009;28;20046;-71
2023/06/20 07:28:04;;;;;;;20.92;15.32;;;;;;;25.65;72.55;101029.53;5066521;28;20045;-70
2023/06/20 07:30:31;;;;;;;19.38;14.98;;;;;;;25.47;73.37;101029.13;5033261;28;21004;-71
2023/06/20 07:32:56;;;;;;;17.48;14.70;;;;;;;25.77;74.20;101032.66;5034478;28;20044;-70
2023/06/20 07:35:21;;;;;;;21.05;15.65;;;;;;;25.94;72.44;101033.28;5039522;28;20042;-71
2023/06/20 07:37:47;;;;;;;19.52;13.88;;;;;;;27.05;68.21;101026.28;5040385;28;20725;-70
2023/06/20 07:40:12;;;;;;;19.10;14.57;;;;;;;27.14;64.24;101025.09;5034335;28;20063;-70
2023/06/20 07:42:38;;;;;;;18.20;13.05;;;;;;;28.23;67.14;101018.81;5034168;28;20406;-71
2023/06/20 07:45:04;;;;;;;15.93;14.32;;;;;;;28.80;61.88;101015.44;5034510;28;20800;-70
2023/06/20 07:47:30;;;;;;;17.50;13.07;;;;;;;28.19;61.36;101020.28;5034248;28;20042;-71
2023/06/20 07:49:55;;;;;;;15.82;13.35;;;;;;;28.60;62.09;101011.88;5035139;28;20052;-70
2023/06/20 07:52:21;;;;;;;14.90;12.77;;;;;;;28.61;61.20;101006.16;5033842;28;20095;-69
2023/06/20 07:54:46;;;;;;;13.60;12.18;;;;;;;28.90;62.52;101012.28;5035934;28;20100;-70
2023/06/20 07:57:12;;;;;;;16.80;12.85;;;;;;;28.86;58.67;100994.53;5035869;28;20038;-71
2023/06/20 07:59:37;;;;;;;17.58;12.75;;;;;;;28.95;59.87;100992.44;5037140;28;20034;-71
2023/06/20 08:02:03;;;;;;;14.45;12.60;;;;;;;28.99;59.55;100989.06;5042262;28;20033;-70
2023/06/20 08:04:28;;;;;;;16.25;14.00;;;;;;;28.60;60.51;100992.66;5035331;28;20029;-70
2023/06/20 08:06:54;;;;;;;15.32;13.43;;;;;;;27.99;61.05;100985.44;5035259;28;20494;-71
2023/06/20 08:09:19;;;;;;;15.35;13.20;;;;;;;28.70;60.68;100987.59;5039075;28;20029;-71
2023/06/20 08:11:45;;;;;;;17.63;13.13;;;;;;;29.06;60.75;100991.78;5039983;28;20084;-70
2023/06/20 08:14:12;;;;;;;10.45;9.23;;;;;;;28.55;58.73;100985.06;5039111;28;20033;-70
2023/06/20 08:16:38;;;;;;;12.13;10.35;;;;;;;28.29;62.61;100982.31;5035686;28;20277;-70
2023/06/20 08:19:03;;;;;;;13.95;10.68;;;;;;;29.08;59.31;100962.22;5035448;28;20039;-70
2023/06/20 08:21:29;;;;;;;13.63;10.45;;;;;;;28.64;58.04;100969.25;5039513;28;20034;-71
2023/06/20 08:23:54;;;;;;;9.57;8.30;;;;;;;28.34;60.04;100964.19;5035407;28;20036;-71
2023/06/20 08:26:20;;;;;;;9.73;8.55;;;;;;;28.96;58.88;100964.75;5038848;28;20777;-71
2023/06/20 08:28:46;;;;;;;10.00;8.25;;;;;;;29.12;57.17;100958.81;5040524;28;20061;-71
2023/06/20 08:31:11;;;;;;;10.80;9.00;;;;;;;29.21;56.34;100961.31;5046129;28;20033;-70
2023/06/20 08:33:37;;;;;;;14.80;9.50;;;;;;;28.62;57.89;100963.13;5041913;28;20454;-70
2023/06/20 08:36:02;;;;;;;12.18;9.93;;;;;;;28.64;58.55;100956.34;5039815;28;20440;-70
2023/06/20 08:38:28;;;;;;;10.27;8.45;;;;;;;29.32;58.98;100956.00;5034417;28;20029;-71
2023/06/20 08:40:53;;;;;;;11.70;9.25;;;;;;;29.34;57.41;100961.25;5054084;28;20471;-70
2023/06/20 08:43:19;;;;;;;9.95;8.48;;;;;;;29.13;56.65;100955.00;5034157;28;20538;-71
2023/06/20 08:45:45;;;;;;;11.48;8.75;;;;;;;29.19;57.40;100950.53;5035848;28;20681;-70
2023/06/20 08:48:10;;;;;;;10.02;7.38;;;;;;;29.06;56.63;100954.16;5036347;28;20457;-71
2023/06/20 08:50:37;;;;;;;9.07;7.57;;;;;;;28.32;56.47;100951.72;5041041;28;20391;-70
2023/06/20 08:53:05;;;;;;;12.32;7.18;;;;;;;29.35;58.67;100950.03;5041430;28;20583;-70
2023/06/20 08:55:32;;;;;;;13.88;6.95;;;;;;;29.19;57.55;100950.53;5039048;28;20874;-71
2023/06/20 08:57:57;;;;;;;11.90;8.10;;;;;;;28.76;58.56;100951.03;5048474;28;20093;-71
2023/06/20 09:00:23;;;;;;;12.68;8.55;;;;;;;29.39;57.76;100958.72;5036577;28;20112;-70
2023/06/20 09:02:50;;;;;;;12.45;9.07;;;;;;;28.79;58.88;100958.03;5042119;28;20088;-70
2023/06/20 09:05:17;;;;;;;10.32;9.18;;;;;;;28.42;58.94;100962.31;5032139;28;21044;-70
2023/06/20 09:07:43;;;;;;;11.93;9.20;;;;;;;28.31;60.87;100966.47;5048175;28;20107;-70
2023/06/20 09:10:13;;;;;;;11.02;8.25;;;;;;;29.06;59.21;100962.41;5045651;28;20025;-70
2023/06/20 09:12:57;;;;;;;13.52;9.65;;;;;;;28.74;58.81;100966.91;5032203;28;20071;-71
2023/06/20 09:15:25;;;;;;;11.40;10.00;;;;;;;29.30;58.73;100962.75;5036163;28;20036;-70
2023/06/20 09:17:52;;;;;;;12.93;11.00;;;;;;;28.37;59.32;100962.94;5049128;28;20037;-70
2023/06/20 09:20:18;;;;;;;9.77;8.63;;;;;;;28.58;61.76;100961.88;5043443;28;20133;-70
2023/06/20 09:22:44;;;;;;;12.00;8.55;;;;;;;28.94;61.23;100955.91;5044068;28;20076;-70
2023/06/20 09:25:11;;;;;;;14.70;8.68;;;;;;;28.99;59.64;100958.00;5044729;28;20049;-70
2023/06/20 09:27:38;;;;;;;12.82;8.32;;;;;;;29.39;59.49;100956.81;5045364;28;20125;-70
2023/06/20 09:30:05;;;;;;;11.55;7.28;;;;;;;30.52;61.19;100957.97;5033368;28;20044;-70
2023/06/20 09:32:40;;;;;;;11.30;8.13;;;;;;;30.17;57.62;100966.75;5041011;28;20905;-70
2023/06/20 09:35:08;;;;;;;11.27;8.07;;;;;;;30.24;56.19;100966.72;5045598;28;20132;-71
2023/06/20 09:37:42;;;;;;;13.00;9.43;;;;;;;29.60;59.27;100963.06;5037945;28;20037;-71
2023/06/20 09:40:13;;;;;;;11.38;8.88;;;;;;;28.95;59.06;100960.34;5036157;28;20044;-70
2023/06/20 09:42:40;;;;;;;12.53;8.67;;;;;;;29.08;60.63;100962.22;5039612;28;20033;-71
2023/06/20 09:45:11;;;;;;;9.23;7.93;;;;;;;29.98;59.09;100956.72;5038473;28;20029;-71
2023/06/20 09:47:38;;;;;;;10.55;7.60;;;;;;;30.24;57.00;100951.03;5045214;28;20813;-71
2023/06/20 09:50:06;;;;;;;10.00;7.30;;;;;;;30.19;56.53;100942.63;5039106;28;20040;-71
2023/06/20 09:52:37;;;;;;;11.90;8.38;;;;;;;29.00;58.00;100940.47;5029946;28;20053;-71
2023/06/20 09:55:09;;;;;;;11.30;8.55;;;;;;;29.49;58.20;100948.09;5038912;28;20120;-71
2023/06/20 09:57:59;;;;;;;10.48;9.02;;;;;;;30.37;57.38;100942.69;5033866;28;20039;-71
2023/06/20 10:00:28;;;;;;;16.52;9.73;;;;;;;30.89;55.32;100947.91;5025206;28;20053;-71
2023/06/20 10:03:00;;;;;;;11.25;9.15;;;;;;;31.05;56.00;100944.53;5034439;28;20049;-71
2023/06/20 10:05:27;;;;;;;12.80;9.70;;;;;;;31.52;55.47;100947.56;5043229;28;20092;-71
2023/06/20 10:08:00;;;;;;;13.23;10.00;;;;;;;30.84;54.38;100951.34;5035392;28;20044;-71
2023/06/20 10:10:26;;;;;;;13.40;10.60;;;;;;;30.84;54.03;100950.50;5045544;28;20030;-72
2023/06/20 10:12:52;;;;;;;22.58;11.05;;;;;;;29.74;56.55;100966.59;5043738;28;20038;-71
2023/06/20 10:15:18;;;;;;;15.38;10.18;;;;;;;30.20;55.31;100955.31;5040858;28;20065;-72
2023/06/20 10:17:49;;;;;;;14.13;9.48;;;;;;;31.00;54.60;100965.59;5048530;28;20033;-72
2023/06/20 10:20:31;;;;;;;15.38;11.50;;;;;;;30.82;54.74;100960.88;5043919;28;20033;-71
2023/06/20 10:22:58;;;;;;;14.40;10.98;;;;;;;30.77;56.89;100958.81;5048817;28;20072;-72
2023/06/20 10:25:26;;;;;;;10.35;8.13;;;;;;;30.90;53.58;100957.84;5045322;28;20135;-71
2023/06/20 10:27:57;;;;;;;15.80;8.98;;;;;;;30.83;53.13;100949.66;5041697;28;20040;-71
2023/06/20 10:30:50;;;;;;;10.75;8.73;;;;;;;31.48;55.91;100951.88;5039242;28;20064;-70
2023/06/20 10:33:23;;;;;;;14.50;7.25;;;;;;;31.41;52.14;100940.94;5050098;28;20057;-71
2023/06/20 10:35:52;;;;;;;13.60;7.50;;;;;;;31.62;53.85;100934.06;5050121;28;20154;-72
2023/06/20 10:38:18;;;;;;;6.95;6.20;;;;;;;31.00;53.63;100938.88;5049875;28;20041;-71
2023/06/20 10:40:45;;;;;;;8.60;6.45;;;;;;;30.93;51.90;100932.63;5053703;28;20037;-71
2023/06/20 10:43:18;;;;;;;11.38;6.72;;;;;;;30.83;54.86;100926.81;5045736;28;20577;-71
2023/06/20 10:45:57;;;;;;;12.18;8.10;;;;;;;30.67;53.93;100929.06;5046242;28;20037;-71
2023/06/20 10:48:23;;;;;;;8.18;6.68;;;;;;;29.78;55.71;100935.69;5044279;28;20049;-71
2023/06/20 10:50:48;;;;;;;8.30;6.47;;;;;;;29.94;55.03;100931.56;5048453;28;20049;-71
2023/06/20 10:53:14;;;;;;;6.85;5.60;;;;;;;29.63;56.06;100926.91;5050314;28;20039;-70
2023/06/20 10:55:40;;;;;;;8.82;6.30;;;;;;;30.77;54.94;100913.91;5040211;28;20844;-72
2023/06/20 10:58:07;;;;;;;7.68;5.60;;;;;;;29.90;54.38;100927.56;5047282;28;20090;-71
2023/06/20 11:00:32;;;;;;;5.75;4.88;;;;;;;30.58;53.18;100919.41;5048769;28;20032;-71
2023/06/20 11:02:58;;;;;;;5.47;5.00;;;;;;;30.95;51.65;100919.44;5048458;28;20037;-72
2023/06/20 11:05:26;;;;;;;6.75;4.80;;;;;;;30.96;51.46;100915.59;5045576;28;20037;-70
2023/06/20 11:07:59;;;;;;;9.38;5.75;;;;;;;31.28;51.33;100919.06;5052806;28;21040;-71
2023/06/20 11:10:35;;;;;;;6.28;5.72;;;;;;;31.48;52.66;100918.81;5044441;28;20072;-72
2023/06/20 11:13:03;;;;;;;6.22;5.63;;;;;;;32.03;51.71;100915.00;5050056;28;20045;-71
2023/06/20 11:15:31;;;;;;;6.13;5.53;;;;;;;31.95;50.57;100905.19;5044133;28;20044;-71